地図

経路データ

SID SEASON NUMBER BASIN SUBBASIN NAME ISO_TIME NATURE LAT LON WMO_WIND WMO_PRES WMO_AGENCY TRACK_TYPE DIST2LAND LANDFALL IFLAG USA_AGENCY USA_ATCF_ID USA_LAT USA_LON USA_RECORD USA_STATUS USA_WIND USA_PRES USA_SSHS USA_R34_NE USA_R34_SE USA_R34_SW USA_R34_NW USA_R50_NE USA_R50_SE USA_R50_SW USA_R50_NW USA_R64_NE USA_R64_SE USA_R64_SW USA_R64_NW USA_POCI USA_ROCI USA_RMW USA_EYE TOKYO_LAT TOKYO_LON TOKYO_GRADE TOKYO_WIND TOKYO_PRES TOKYO_R50_DIR TOKYO_R50_LONG TOKYO_R50_SHORT TOKYO_R30_DIR TOKYO_R30_LONG TOKYO_R30_SHORT TOKYO_LAND CMA_LAT CMA_LON CMA_CAT CMA_WIND CMA_PRES HKO_LAT HKO_LON HKO_CAT HKO_WIND HKO_PRES NEWDELHI_LAT NEWDELHI_LON NEWDELHI_GRADE NEWDELHI_WIND NEWDELHI_PRES NEWDELHI_CI NEWDELHI_DP NEWDELHI_POCI REUNION_LAT REUNION_LON REUNION_TYPE REUNION_WIND REUNION_PRES REUNION_TNUM REUNION_CI REUNION_RMW REUNION_R34_NE REUNION_R34_SE REUNION_R34_SW REUNION_R34_NW REUNION_R50_NE REUNION_R50_SE REUNION_R50_SW REUNION_R50_NW REUNION_R64_NE REUNION_R64_SE REUNION_R64_SW REUNION_R64_NW BOM_LAT BOM_LON BOM_TYPE BOM_WIND BOM_PRES BOM_TNUM BOM_CI BOM_RMW BOM_R34_NE BOM_R34_SE BOM_R34_SW BOM_R34_NW BOM_R50_NE BOM_R50_SE BOM_R50_SW BOM_R50_NW BOM_R64_NE BOM_R64_SE BOM_R64_SW BOM_R64_NW BOM_ROCI BOM_POCI BOM_EYE BOM_POS_METHOD BOM_PRES_METHOD NADI_LAT NADI_LON NADI_CAT NADI_WIND NADI_PRES WELLINGTON_LAT WELLINGTON_LON WELLINGTON_WIND WELLINGTON_PRES DS824_LAT DS824_LON DS824_STAGE DS824_WIND DS824_PRES TD9636_LAT TD9636_LON TD9636_STAGE TD9636_WIND TD9636_PRES TD9635_LAT TD9635_LON TD9635_WIND TD9635_PRES TD9635_ROCI NEUMANN_LAT NEUMANN_LON NEUMANN_CLASS NEUMANN_WIND NEUMANN_PRES MLC_LAT MLC_LON MLC_CLASS MLC_WIND MLC_PRES USA_GUST BOM_GUST BOM_GUST_PER REUNION_GUST REUNION_GUST_PER USA_SEAHGT USA_SEARAD_NE USA_SEARAD_SE USA_SEARAD_SW USA_SEARAD_NW STORM_SPEED STORM_DIR
1955237N18087 1955 59 NI BB NOT_NAMED 1955-08-24 18:00:00 TS 17.9000 87.1000 main 246 246 O________O____ jtwc_io IO051955 17.9000 87.1000 -1 17.9000 87.1000 TC 1 316
1955237N18087 1955 59 NI BB NOT_NAMED 1955-08-24 21:00:00 TS 17.9400 87.0600 main 246 232 P________P____ IO051955 17.9400 87.0600 -1 17.9400 87.0600 TC 1 317
1955237N18087 1955 59 NI BB NOT_NAMED 1955-08-25 00:00:00 TS 18.0000 87.0000 main 232 218 O________O____ jtwc_io IO051955 18.0000 87.0000 -1 18.0000 87.0000 TC 25 2 316
1955237N18087 1955 59 NI BB NOT_NAMED 1955-08-25 03:00:00 TS 18.0933 86.9067 main 218 203 P________PO___ IO051955 18.0925 86.9075 -1 18.0925 86.9075 TC 25 18.1000 86.9000 1 3 316
1955237N18087 1955 59 NI BB NOT_NAMED 1955-08-25 06:00:00 TS 18.2003 86.8013 main 203 189 O________OP___ jtwc_io IO051955 18.2000 86.8000 -1 18.2000 86.8000 TC 25 18.2016 86.8063 1 3 317
1955237N18087 1955 59 NI BB NOT_NAMED 1955-08-25 09:00:00 TS 18.3007 86.7027 main 189 175 P________PP___ IO051955 18.3000 86.7000 -1 18.3000 86.7000 TC 25 18.3025 86.7100 1 3 316
1955237N18087 1955 59 NI BB NOT_NAMED 1955-08-25 12:00:00 TS 18.4007 86.6029 main 175 162 O________OP___ jtwc_io IO051955 18.4000 86.6000 -1 18.4000 86.6000 TC 25 18.4022 86.6088 1 3 317
1955237N18087 1955 59 NI BB NOT_NAMED 1955-08-25 15:00:00 TS 18.5000 86.5050 main 162 148 P________PO___ IO051955 18.5000 86.5075 -1 18.5000 86.5075 TC 25 18.5000 86.5000 1 3 315
1955237N18087 1955 59 NI BB NOT_NAMED 1955-08-25 18:00:00 TS 18.5981 86.3941 main 148 133 O________OP___ jtwc_io IO051955 18.6000 86.4000 -1 18.6000 86.4000 TC 25 18.5944 86.3822 1 3 310
1955237N18087 1955 59 NI BB NOT_NAMED 1955-08-25 21:00:00 TS 18.7033 86.2525 main 133 115 P________PP___ IO051955 18.7150 86.2500 -1 18.7150 86.2500 TC 25 18.6800 86.2575 1 3 305
1955237N18087 1955 59 NI BB NOT_NAMED 1955-08-26 00:00:00 TS 18.7835 86.1097 main 115 109 O________OP___ jtwc_io IO051955 18.8000 86.1000 -1 18.8000 86.1000 TC 25 18.7506 86.1291 1 3 294
1955237N18087 1955 59 NI BB NOT_NAMED 1955-08-26 03:00:00 TS 18.8100 86.0000 main 109 103 P________PO___ IO051955 18.8150 86.0000 -1 18.8150 86.0000 TC 25 18.8000 86.0000 1 2 277
1955237N18087 1955 59 NI BB NOT_NAMED 1955-08-26 06:00:00 TS 18.8072 85.8916 main 103 98 O________OP___ jtwc_io IO051955 18.8000 85.9000 -1 18.8000 85.9000 TC 25 18.8215 85.8749 1 2 269
1955237N18087 1955 59 NI BB NOT_NAMED 1955-08-26 09:00:00 TS 18.8075 85.7500 main 94 88 P________PP___ IO051955 18.8000 85.7500 -1 18.8000 85.7500 TC 25 18.8225 85.7499 1 3 269
1955237N18087 1955 59 NI BB NOT_NAMED 1955-08-26 12:00:00 TS 18.8041 85.6083 main 88 84 O________OP___ jtwc_io IO051955 18.8000 85.6000 -1 18.8000 85.6000 TC 25 18.8122 85.6249 1 2 268
1955237N18087 1955 59 NI BB NOT_NAMED 1955-08-26 15:00:00 TS 18.8000 85.5000 main 84 76 P________PO___ IO051955 18.8000 85.5000 -1 18.8000 85.5000 TC 25 18.8000 85.5000 1 2 267
1955237N18087 1955 59 NI BB NOT_NAMED 1955-08-26 18:00:00 TS 18.7932 85.4011 main 76 66 O________OP___ jtwc_io IO051955 18.8000 85.4000 -1 18.8000 85.4000 TC 25 18.7795 85.4032 1 2 267
1955237N18087 1955 59 NI BB NOT_NAMED 1955-08-26 21:00:00 TS 18.7874 85.2724 main 66 47 P________PP___ IO051955 18.8000 85.2575 -1 18.8000 85.2575 TC 25 18.7622 85.3022 1 3 269
1955237N18087 1955 59 NI BB NOT_NAMED 1955-08-27 00:00:00 TS 18.7879 85.1250 main 47 38 O________OP___ jtwc_io IO051955 18.8000 85.1000 -1 18.8000 85.1000 TC 25 18.7638 85.1750 1 3 269
1955237N18087 1955 59 NI BB NOT_NAMED 1955-08-27 03:00:00 TS 18.7849 84.9866 main 38 21 P________PO___ IO051955 18.7774 84.9799 -1 18.7774 84.9799 TC 25 18.8000 85.0000 1 3 277
1955237N18087 1955 59 NI BB NOT_NAMED 1955-08-27 06:00:00 TS 18.8257 84.7767 main 21 0 O________OP___ jtwc_io IO051955 18.8000 84.8000 -1 18.8000 84.8000 TC 25 18.8772 84.7302 1 5 287
1955237N18087 1955 59 NI BB NOT_NAMED 1955-08-27 09:00:00 TS 18.9436 84.4485 main 0 0 P________PP___ IO051955 18.9201 84.4651 -1 18.9201 84.4651 TC 25 18.9905 84.4153 1 7 294
1955237N18087 1955 59 NI BB NOT_NAMED 1955-08-27 12:00:00 TS 19.1112 84.0976 main 0 0 O________OP___ jtwc_io IO051955 19.1000 84.1000 -1 19.1000 84.1000 TC 25 19.1335 84.0927 1 7 301
1955237N18087 1955 59 NI BB NOT_NAMED 1955-08-27 15:00:00 TS 19.2950 83.8183 main 0 0 P________PO___ IO051955 19.2924 83.8275 -1 19.2924 83.8275 TC 25 19.3000 83.8000 1 6 308
1955237N18087 1955 59 NI BB NOT_NAMED 1955-08-27 18:00:00 TS 19.4938 83.5863 main 0 0 O________OP___ jtwc_io IO051955 19.5000 83.6000 -1 19.5000 83.6000 TC 25 19.4844 83.5659 1 6 315
1955237N18087 1955 59 NI BB NOT_NAMED 1955-08-27 21:00:00 TS 19.6938 83.3897 main 0 0 P________PP___ IO051955 19.7026 83.3951 -1 19.7026 83.3951 TC 25 19.6822 83.3825 1 5 319
1955237N18087 1955 59 NI BB NOT_NAMED 1955-08-28 00:00:00 TS 19.8944 83.2164 main 0 0 O________OP___ jtwc_io IO051955 19.9000 83.2000 -1 19.9000 83.2000 TC 25 19.8889 83.2329 1 5 326
1955237N18087 1955 59 NI BB NOT_NAMED 1955-08-28 03:00:00 NR 20.1000 83.1000 main 0 __________O___ IO051955 -1 TC 20.1000 83.1000 1 5 331

IBTrACS Databaseについて

本データベースは、米国NOAAが公開する1842年以降の世界の熱帯低気圧のベストトラックデータアーカイブInternational Best Track Archive for Climate Stewardship (IBTrACS)を、ウェブで閲覧しやすい形式に変換したものです。

最終更新日:2021-12-03